Time;durP1;ratioP1;P1;durP2;ratioP2;P2;SDS_P1;SDS_P2;PMS_P1;PMS_P2;Temp;Humidity;BMP_temperature;BMP_pressure;BME280_temperature;BME280_humidity;BME280_pressure;Samples;Min_cycle;Max_cycle;Signal;HPM_P1;HPM_P2
2023/07/08 00:00:41;;;;;;;9.13;3.20;;;;;;;;;;5014468;28;20029;-63
2023/07/08 00:03:06;;;;;;;7.82;3.47;;;;;;;;;;5013498;28;20061;-64
2023/07/08 00:05:32;;;;;;;6.78;3.85;;;;;;;;;;5013084;28;20026;-65
2023/07/08 00:07:57;;;;;;;7.25;3.40;;;;;;;;;;5013596;28;20033;-63
2023/07/08 00:10:24;;;;;;;7.53;3.70;;;;;;;;;;5013503;28;20040;-65
2023/07/08 00:12:50;;;;;;;7.20;3.90;;;;;;;;;;5013166;28;20575;-64
2023/07/08 00:15:16;;;;;;;7.43;4.00;;;;;;;;;;5014229;28;20201;-63
2023/07/08 00:17:42;;;;;;;5.93;3.17;;;;;;;;;;5013909;28;20100;-64
2023/07/08 00:20:17;;;;;;;6.75;3.45;;;;;;;;;;5011671;28;20033;-63
2023/07/08 00:22:46;;;;;;;7.30;4.07;;;;;;;;;;5013288;28;20438;-65
2023/07/08 00:25:11;;;;;;;6.90;3.47;;;;;;;;;;5013786;28;20443;-64
2023/07/08 00:27:36;;;;;;;6.65;3.30;;;;;;;;;;5014194;28;20104;-65
2023/07/08 00:30:08;;;;;;;7.18;3.15;;;;;;;;;;5013824;28;20029;-63
2023/07/08 00:32:33;;;;;;;6.93;3.47;;;;;;;;;;5013548;28;20088;-63
2023/07/08 00:34:58;;;;;;;8.32;3.28;;;;;;;;;;5012555;28;20031;-64
2023/07/08 00:37:30;;;;;;;6.65;2.90;;;;;;;;;;5013631;28;20497;-62
2023/07/08 00:39:55;;;;;;;5.18;2.80;;;;;;;;;;5014041;28;20088;-64
2023/07/08 00:42:24;;;;;;;6.47;2.87;;;;;;;;;;5013316;28;20033;-64
2023/07/08 00:44:49;;;;;;;7.55;3.00;;;;;;;;;;5015231;28;20029;-65
2023/07/08 00:47:15;;;;;;;6.37;2.70;;;;;;;;;;5016543;28;20095;-65
2023/07/08 00:49:43;;;;;;;7.35;3.40;;;;;;;;;;5017933;28;20366;-64
2023/07/08 00:52:24;;;;;;;8.18;3.10;;;;;;;;;;5026243;28;20014;-64
2023/07/08 00:54:51;;;;;;;5.18;2.50;;;;;;;;;;5023036;28;20033;-63
2023/07/08 00:57:16;;;;;;;6.88;2.92;;;;;;;;;;5018177;28;20034;-64
2023/07/08 00:59:44;;;;;;;5.75;2.67;;;;;;;;;;5016587;28;20093;-63
2023/07/08 01:02:12;;;;;;;6.85;2.97;;;;;;;;;;5013586;28;20096;-64
2023/07/08 01:04:42;;;;;;;7.55;3.00;;;;;;;;;;5011637;28;20018;-64
2023/07/08 01:07:07;;;;;;;7.40;3.13;;;;;;;;;;5012907;28;20022;-64
2023/07/08 01:09:34;;;;;;;5.37;2.80;;;;;;;;;;5012801;28;20038;-65
2023/07/08 01:12:01;;;;;;;5.70;2.67;;;;;;;;;;5010901;28;20487;-66
2023/07/08 01:14:28;;;;;;;8.13;2.85;;;;;;;;;;5012054;28;20018;-64
2023/07/08 01:16:54;;;;;;;6.15;3.38;;;;;;;;;;5012726;28;20076;-65
2023/07/08 01:19:20;;;;;;;7.17;3.07;;;;;;;;;;5012492;28;20026;-64
2023/07/08 01:21:45;;;;;;;;;;;;;;;;;;5012792;28;20847;-64
2023/07/08 01:24:11;;;;;;;5.60;2.70;;;;;;;;;;5011688;28;19994;-64
2023/07/08 01:26:38;;;;;;;6.47;2.88;;;;;;;;;;5011019;28;20025;-65
2023/07/08 01:29:04;;;;;;;7.25;2.95;;;;;;;;;;5011723;28;20030;-64
2023/07/08 01:31:29;;;;;;;6.33;3.00;;;;;;;;;;5008038;28;20014;-64
2023/07/08 01:33:54;;;;;;;6.33;2.77;;;;;;;;;;5009649;28;20932;-64
2023/07/08 01:36:20;;;;;;;5.45;2.70;;;;;;;;;;5011932;28;20022;-64
2023/07/08 01:38:45;;;;;;;5.82;2.85;;;;;;;;;;5012275;28;20030;-64
2023/07/08 01:41:11;;;;;;;5.73;2.77;;;;;;;;;;5008752;28;20033;-64
2023/07/08 01:43:36;;;;;;;7.25;3.08;;;;;;;;;;5010109;28;20441;-65
2023/07/08 01:46:02;;;;;;;8.30;3.40;;;;;;;;;;5011866;28;20021;-63
2023/07/08 01:48:29;;;;;;;5.70;2.80;;;;;;;;;;5011895;28;20026;-64
2023/07/08 01:50:57;;;;;;;5.90;2.50;;;;;;;;;;5012077;28;20607;-64
2023/07/08 01:53:33;;;;;;;5.38;2.90;;;;;;;;;;5009940;28;20038;-64
2023/07/08 01:55:59;;;;;;;6.28;3.00;;;;;;;;;;5011904;28;20028;-63
2023/07/08 01:58:24;;;;;;;5.88;2.92;;;;;;;;;;5010453;28;20101;-65
2023/07/08 02:00:50;;;;;;;6.40;2.75;;;;;;;;;;5012222;28;20028;-65
2023/07/08 02:03:15;;;;;;;5.90;3.08;;;;;;;;;;5011411;28;20034;-65
2023/07/08 02:05:40;;;;;;;6.80;3.03;;;;;;;;;;5011682;28;20064;-64
2023/07/08 02:08:05;;;;;;;7.38;3.03;;;;;;;;;;5010496;28;20456;-64
2023/07/08 02:10:30;;;;;;;5.97;2.90;;;;;;;;;;5011520;28;20026;-65
2023/07/08 02:12:56;;;;;;;8.80;3.20;;;;;;;;;;5010621;28;20025;-65
2023/07/08 02:15:21;;;;;;;6.07;3.20;;;;;;;;;;5011628;28;20401;-64
2023/07/08 02:17:46;;;;;;;5.93;2.70;;;;;;;;;;5010449;28;20034;-64
2023/07/08 02:20:11;;;;;;;6.03;3.17;;;;;;;;;;5011058;28;20397;-64
2023/07/08 02:22:36;;;;;;;7.47;3.13;;;;;;;;;;5009983;28;20466;-65
2023/07/08 02:25:02;;;;;;;6.15;2.80;;;;;;;;;;5010945;28;20478;-64
2023/07/08 02:27:27;;;;;;;6.60;2.72;;;;;;;;;;5009754;28;20041;-64
2023/07/08 02:29:52;;;;;;;5.78;3.15;;;;;;;;;;5011408;28;20026;-65
2023/07/08 02:32:17;;;;;;;5.90;2.85;;;;;;;;;;5021278;28;20021;-65
2023/07/08 02:34:42;;;;;;;5.32;2.90;;;;;;;;;;5031743;28;20113;-64
2023/07/08 02:37:07;;;;;;;6.87;3.07;;;;;;;;;;5014973;28;20029;-66
2023/07/08 02:39:33;;;;;;;7.25;3.00;;;;;;;;;;5011226;28;20444;-65
2023/07/08 02:41:58;;;;;;;7.18;3.53;;;;;;;;;;5011188;28;20448;-66
2023/07/08 02:44:23;;;;;;;6.73;3.10;;;;;;;;;;5010744;28;20038;-64
2023/07/08 02:46:48;;;;;;;6.17;3.33;;;;;;;;;;5011001;28;20037;-63
2023/07/08 02:49:13;;;;;;;5.88;3.05;;;;;;;;;;5011357;28;20032;-64
2023/07/08 02:51:38;;;;;;;6.93;2.90;;;;;;;;;;5010238;28;20116;-63
2023/07/08 02:54:03;;;;;;;5.95;3.05;;;;;;;;;;5010490;28;20026;-63
2023/07/08 02:56:29;;;;;;;6.32;2.90;;;;;;;;;;5011294;28;20696;-63
2023/07/08 02:58:54;;;;;;;6.90;2.60;;;;;;;;;;5011283;28;20120;-63
2023/07/08 03:01:19;;;;;;;6.83;3.00;;;;;;;;;;5010953;28;20120;-63
2023/07/08 03:03:45;;;;;;;5.57;2.77;;;;;;;;;;5008806;28;20431;-63
2023/07/08 03:06:10;;;;;;;6.55;3.30;;;;;;;;;;5010919;28;20071;-64
2023/07/08 03:08:35;;;;;;;5.97;2.95;;;;;;;;;;5011628;28;20390;-63
2023/07/08 03:11:02;;;;;;;7.85;3.28;;;;;;;;;;5002413;28;20019;-63
2023/07/08 03:13:27;;;;;;;9.90;3.20;;;;;;;;;;5010155;28;20108;-62
2023/07/08 03:15:54;;;;;;;6.07;2.60;;;;;;;;;;5011402;28;20045;-62
2023/07/08 03:18:21;;;;;;;7.13;2.92;;;;;;;;;;5011100;28;20093;-64
2023/07/08 03:20:47;;;;;;;5.70;3.08;;;;;;;;;;5011511;28;20037;-62
2023/07/08 03:23:12;;;;;;;6.15;2.75;;;;;;;;;;5011970;28;20021;-64
2023/07/08 03:25:38;;;;;;;5.05;2.60;;;;;;;;;;5011773;28;20018;-61
2023/07/08 03:28:05;;;;;;;6.43;2.70;;;;;;;;;;5012931;28;20354;-62
2023/07/08 03:30:31;;;;;;;5.60;2.58;;;;;;;;;;5013928;28;20125;-62
2023/07/08 03:32:56;;;;;;;5.97;2.80;;;;;;;;;;5013805;28;20593;-63
2023/07/08 03:35:22;;;;;;;6.47;3.15;;;;;;;;;;5031136;28;20036;-64
2023/07/08 03:37:47;;;;;;;6.97;2.92;;;;;;;;;;5030997;28;20026;-61
2023/07/08 03:40:13;;;;;;;5.80;2.93;;;;;;;;;;5015159;28;20385;-62
2023/07/08 03:42:38;;;;;;;5.70;2.63;;;;;;;;;;5007321;28;20768;-63
2023/07/08 03:45:04;;;;;;;6.05;2.75;;;;;;;;;;4995175;28;20478;-61
2023/07/08 03:47:29;;;;;;;5.60;2.50;;;;;;;;;;5010775;28;20022;-62
2023/07/08 03:49:54;;;;;;;7.03;3.10;;;;;;;;;;5008891;28;20053;-62
2023/07/08 03:52:19;;;;;;;6.33;2.83;;;;;;;;;;5009962;28;20393;-61
2023/07/08 03:54:44;;;;;;;5.72;2.88;;;;;;;;;;5016278;28;20389;-64
2023/07/08 03:57:09;;;;;;;6.13;2.63;;;;;;;;;;5010075;28;20036;-61
2023/07/08 03:59:35;;;;;;;6.22;2.90;;;;;;;;;;5010298;28;20026;-63
2023/07/08 04:02:00;;;;;;;5.47;2.63;;;;;;;;;;5009882;28;20541;-63
2023/07/08 04:04:25;;;;;;;5.55;2.78;;;;;;;;;;5009886;28;20037;-61
2023/07/08 04:06:51;;;;;;;7.93;2.72;;;;;;;;;;5011017;28;20022;-62
2023/07/08 04:09:16;;;;;;;6.68;2.65;;;;;;;;;;5011962;28;20033;-62
2023/07/08 04:11:41;;;;;;;7.85;3.20;;;;;;;;;;5011468;28;20022;-62
2023/07/08 04:14:09;;;;;;;5.93;2.70;;;;;;;;;;5010061;28;20036;-63
2023/07/08 04:16:45;;;;;;;5.45;2.83;;;;;;;;;;5010680;28;20025;-62
2023/07/08 04:19:14;;;;;;;6.95;2.67;;;;;;;;;;5010202;28;20025;-62
2023/07/08 04:21:39;;;;;;;5.85;2.63;;;;;;;;;;5008566;28;20104;-63
2023/07/08 04:24:04;;;;;;;5.07;2.50;;;;;;;;;;5008586;28;20041;-63
2023/07/08 04:26:29;;;;;;;5.43;2.87;;;;;;;;;;5009083;28;20048;-61
2023/07/08 04:28:55;;;;;;;8.93;3.00;;;;;;;;;;5010022;28;20113;-64
2023/07/08 04:31:20;;;;;;;5.33;2.80;;;;;;;;;;5011222;28;20025;-63
2023/07/08 04:33:45;;;;;;;6.47;2.90;;;;;;;;;;5013190;28;20486;-64
2023/07/08 04:36:13;;;;;;;6.83;2.97;;;;;;;;;;5012377;28;20022;-62
2023/07/08 04:38:41;;;;;;;6.10;2.80;;;;;;;;;;5013449;28;20425;-64
2023/07/08 04:41:06;;;;;;;6.82;2.80;;;;;;;;;;5013574;28;20501;-64
2023/07/08 04:43:31;;;;;;;7.38;2.67;;;;;;;;;;5008806;28;20109;-64
2023/07/08 04:45:57;;;;;;;5.67;2.50;;;;;;;;;;5009414;28;20013;-62
2023/07/08 04:48:22;;;;;;;6.33;2.53;;;;;;;;;;5013150;28;20022;-62
2023/07/08 04:50:49;;;;;;;6.93;2.60;;;;;;;;;;5013166;28;21015;-63
2023/07/08 04:53:15;;;;;;;6.07;2.83;;;;;;;;;;5011958;28;20025;-63
2023/07/08 04:55:44;;;;;;;8.00;2.60;;;;;;;;;;5014357;28;20021;-63
2023/07/08 04:58:09;;;;;;;6.63;2.80;;;;;;;;;;5008635;28;20093;-62
2023/07/08 05:00:34;;;;;;;7.17;2.70;;;;;;;;;;5007603;28;20030;-62
2023/07/08 05:02:59;;;;;;;8.13;2.93;;;;;;;;;;5012800;28;20045;-63
2023/07/08 05:05:25;;;;;;;8.73;2.70;;;;;;;;;;5010771;28;20029;-62
2023/07/08 05:07:51;;;;;;;5.63;2.70;;;;;;;;;;5012555;28;20174;-63
2023/07/08 05:10:16;;;;;;;7.35;2.90;;;;;;;;;;5009044;28;20033;-63
2023/07/08 05:12:42;;;;;;;6.50;2.67;;;;;;;;;;5003461;28;20025;-63
2023/07/08 05:15:07;;;;;;;5.95;2.67;;;;;;;;;;5006054;28;20425;-63
2023/07/08 05:17:32;;;;;;;5.50;2.80;;;;;;;;;;5012493;28;20398;-63
2023/07/08 05:20:00;;;;;;;5.80;2.47;;;;;;;;;;5012948;28;20534;-64
2023/07/08 05:22:25;;;;;;;6.28;2.60;;;;;;;;;;5010685;28;20206;-62
2023/07/08 05:24:52;;;;;;;5.80;2.77;;;;;;;;;;5004494;28;20485;-65
2023/07/08 05:27:17;;;;;;;5.50;2.42;;;;;;;;;;5007981;28;20101;-63
2023/07/08 05:29:43;;;;;;;4.75;2.40;;;;;;;;;;5011309;28;20117;-64
2023/07/08 05:32:08;;;;;;;;;;;;;;;;;;5003712;28;20018;-63
2023/07/08 05:34:33;;;;;;;4.70;2.63;;;;;;;;;;5011058;28;20316;-61
2023/07/08 05:36:58;;;;;;;7.47;2.80;;;;;;;;;;5009486;28;20037;-64
2023/07/08 05:39:23;;;;;;;6.50;2.57;;;;;;;;;;5011879;28;20089;-63
2023/07/08 05:41:49;;;;;;;5.40;2.40;;;;;;;;;;5008726;28;20097;-63
2023/07/08 05:44:14;;;;;;;;;;;;;;;;;;5010434;28;20018;-63
2023/07/08 05:46:39;;;;;;;5.05;2.40;;;;;;;;;;5011667;28;20420;-62
2023/07/08 05:49:04;;;;;;;;;;;;;;;;;;5013434;28;20076;-63
2023/07/08 05:51:29;;;;;;;4.72;2.08;;;;;;;;;;5002580;28;20384;-62
2023/07/08 05:53:54;;;;;;;5.32;2.40;;;;;;;;;;5010687;28;20022;-63
2023/07/08 05:56:19;;;;;;;;;;;;;;;;;;5012446;28;20040;-63
2023/07/08 05:58:44;;;;;;;5.07;2.17;;;;;;;;;;5010631;28;19909;-63
2023/07/08 06:01:09;;;;;;;;;;;;;;;;;;5007143;28;20102;-62
2023/07/08 06:03:37;;;;;;;5.07;2.20;;;;;;;;;;5004797;28;19955;-63
2023/07/08 06:06:02;;;;;;;5.45;2.38;;;;;;;;;;5008276;28;20021;-65
2023/07/08 06:08:27;;;;;;;7.03;2.53;;;;;;;;;;5007681;28;20033;-66
2023/07/08 06:10:52;;;;;;;5.35;2.28;;;;;;;;;;5007295;28;20024;-63
2023/07/08 06:13:17;;;;;;;5.40;2.22;;;;;;;;;;5000125;28;20030;-62
2023/07/08 06:15:42;;;;;;;6.17;2.47;;;;;;;;;;5017263;28;20466;-65
2023/07/08 06:18:08;;;;;;;4.60;2.27;;;;;;;;;;5010691;28;20504;-63
2023/07/08 06:20:33;;;;;;;;;;;;;;;;;;5011892;28;20022;-63
2023/07/08 06:22:58;;;;;;;5.33;2.20;;;;;;;;;;5011228;28;20423;-64
2023/07/08 06:25:23;;;;;;;5.10;2.50;;;;;;;;;;5011715;28;20026;-63
2023/07/08 06:27:48;;;;;;;5.07;2.38;;;;;;;;;;5011504;28;20101;-64
2023/07/08 06:30:13;;;;;;;;;;;;;;;;;;5012043;28;20397;-64
2023/07/08 06:32:38;;;;;;;5.30;2.78;;;;;;;;;;5011122;28;19912;-64
2023/07/08 06:35:03;;;;;;;;;;;;;;;;;;5011602;28;20496;-64
2023/07/08 06:37:29;;;;;;;6.80;2.55;;;;;;;;;;5014348;28;20381;-63
2023/07/08 06:39:54;;;;;;;;;;;;;;;;;;5011381;28;20037;-64
2023/07/08 06:42:19;;;;;;;6.13;2.28;;;;;;;;;;5008002;28;19913;-64
2023/07/08 06:44:50;;;;;;;;;;;;;;;;;;5002099;28;20447;-64
2023/07/08 06:47:15;;;;;;;5.65;2.60;;;;;;;;;;5006744;28;19917;-64
2023/07/08 06:49:41;;;;;;;;;;;;;;;;;;5005673;28;20030;-65
2023/07/08 06:52:06;;;;;;;5.03;2.60;;;;;;;;;;5005327;28;20285;-64
2023/07/08 06:54:31;;;;;;;;;;;;;;;;;;5005546;28;20122;-65
2023/07/08 06:56:56;;;;;;;5.97;2.30;;;;;;;;;;5003096;28;19918;-62
2023/07/08 06:59:21;;;;;;;5.78;2.40;;;;;;;;;;5004371;28;20461;-63
2023/07/08 07:01:46;;;;;;;;;;;;;;;;;;5003344;28;20118;-64
2023/07/08 07:04:12;;;;;;;8.73;2.50;;;;;;;;;;5007913;28;19996;-64
2023/07/08 07:06:37;;;;;;;;;;;;;;;;;;5006352;28;20022;-65
2023/07/08 07:09:02;;;;;;;5.80;2.37;;;;;;;;;;5003252;28;20004;-64
2023/07/08 07:11:28;;;;;;;;;;;;;;;;;;5011165;28;20025;-65
2023/07/08 07:13:53;;;;;;;5.00;2.58;;;;;;;;;;5009782;28;19909;-63
2023/07/08 07:16:18;;;;;;;;;;;;;;;;;;5010926;28;20493;-63
2023/07/08 07:18:43;;;;;;;5.45;2.53;;;;;;;;;;5010458;28;19913;-64
2023/07/08 07:21:08;;;;;;;;;;;;;;;;;;5014696;28;20492;-63
2023/07/08 07:23:33;;;;;;;6.13;2.53;;;;;;;;;;5011322;28;19913;-64
2023/07/08 07:25:58;;;;;;;;;;;;;;;;;;5008214;28;20022;-64
2023/07/08 07:28:24;;;;;;;6.90;2.60;;;;;;;;;;5013900;28;19906;-65
2023/07/08 07:30:49;;;;;;;;;;;;;;;;;;5011618;28;20554;-62
2023/07/08 07:33:14;;;;;;;7.82;2.80;;;;;;;;;;5010192;28;19914;-65
2023/07/08 07:35:39;;;;;;;;;;;;;;;;;;4996407;28;20029;-65
2023/07/08 07:38:04;;;;;;;6.25;2.65;;;;;;;;;;5005866;28;20000;-65
2023/07/08 07:40:29;;;;;;;;;;;;;;;;;;5009001;28;20067;-64
2023/07/08 07:42:54;;;;;;;5.97;2.80;;;;;;;;;;5009132;28;20000;-66
2023/07/08 07:45:22;;;;;;;;;;;;;;;;;;5000281;28;20133;-65
2023/07/08 07:47:47;;;;;;;6.53;2.55;;;;;;;;;;5009864;28;19952;-65
2023/07/08 07:50:12;;;;;;;;;;;;;;;;;;4997403;28;20034;-66
2023/07/08 07:52:37;;;;;;;8.32;2.75;;;;;;;;;;5005638;28;19956;-63
2023/07/08 07:55:03;;;;;;;5.00;2.50;;;;;;;;;;5010534;28;20018;-65
2023/07/08 07:57:28;;;;;;;;;;;;;;;;;;5011257;28;20026;-67
2023/07/08 07:59:53;;;;;;;6.75;2.70;;;;;;;;;;5008359;28;20017;-64
2023/07/08 08:02:18;;;;;;;;;;;;;;;;;;5009791;28;20104;-65
2023/07/08 08:04:43;;;;;;;6.13;2.72;;;;;;;;;;5006389;28;20396;-65
2023/07/08 08:07:09;;;;;;;;;;;;;;;;;;5013305;28;20040;-65
2023/07/08 08:09:35;;;;;;;6.30;2.80;;;;;;;;;;5013683;28;19999;-65
2023/07/08 08:12:00;;;;;;;;;;;;;;;;;;5014247;28;20470;-65
2023/07/08 08:14:25;;;;;;;5.63;2.78;;;;;;;;;;5013822;28;19949;-65
2023/07/08 08:16:50;;;;;;;6.15;2.80;;;;;;;;;;5014019;28;20038;-64
2023/07/08 08:19:15;;;;;;;6.50;2.83;;;;;;;;;;5014147;28;20501;-64
2023/07/08 08:21:40;;;;;;;;;;;;;;;;;;5009905;28;20026;-64
2023/07/08 08:24:05;;;;;;;5.93;2.67;;;;;;;;;;5012338;28;19909;-64
2023/07/08 08:26:30;;;;;;;6.72;2.70;;;;;;;;;;5013823;28;20018;-65
2023/07/08 08:28:56;;;;;;;;;;;;;;;;;;5014726;28;20022;-65
2023/07/08 08:31:21;;;;;;;6.03;2.67;;;;;;;;;;5011603;28;19939;-64
2023/07/08 08:33:46;;;;;;;6.53;3.10;;;;;;;;;;5012745;28;20508;-63
2023/07/08 08:36:11;;;;;;;5.13;2.60;;;;;;;;;;5019161;28;20033;-66
2023/07/08 08:38:36;;;;;;;8.00;2.83;;;;;;;;;;5011362;28;20053;-62
2023/07/08 08:41:11;;;;;;;6.05;3.30;;;;;;;;;;5007194;28;20386;-66
2023/07/08 08:43:39;;;;;;;6.60;3.10;;;;;;;;;;5011728;28;20038;-66
2023/07/08 08:46:13;;;;;;;7.28;2.92;;;;;;;;;;5007982;28;20026;-67
2023/07/08 08:48:43;;;;;;;6.00;3.10;;;;;;;;;;5005771;28;20447;-66
2023/07/08 08:51:12;;;;;;;6.22;2.83;;;;;;;;;;5011913;28;20120;-65
2023/07/08 08:53:37;;;;;;;5.28;2.92;;;;;;;;;;5012678;28;20018;-64
2023/07/08 08:56:12;;;;;;;7.47;3.57;;;;;;;;;;5012879;28;20390;-63
2023/07/08 08:58:43;;;;;;;5.22;3.00;;;;;;;;;;5014384;28;20113;-62
2023/07/08 09:01:11;;;;;;;6.18;3.00;;;;;;;;;;5013038;28;20032;-63
2023/07/08 09:03:39;;;;;;;5.22;2.80;;;;;;;;;;5012887;28;20064;-63
2023/07/08 09:06:09;;;;;;;5.68;2.78;;;;;;;;;;5012778;28;20017;-63
2023/07/08 09:08:36;;;;;;;6.22;2.97;;;;;;;;;;5013590;28;20068;-61
2023/07/08 09:11:07;;;;;;;7.38;2.97;;;;;;;;;;5013577;28;20100;-63
2023/07/08 09:13:34;;;;;;;6.43;2.95;;;;;;;;;;5013183;28;20026;-62
2023/07/08 09:16:05;;;;;;;5.38;2.65;;;;;;;;;;5010626;28;20025;-62
2023/07/08 09:18:33;;;;;;;5.38;2.90;;;;;;;;;;5011873;28;20374;-62
2023/07/08 09:20:59;;;;;;;7.82;2.78;;;;;;;;;;5007576;28;20014;-63
2023/07/08 09:23:28;;;;;;;6.53;2.75;;;;;;;;;;5010534;28;20029;-62
2023/07/08 09:25:59;;;;;;;6.57;2.60;;;;;;;;;;5005319;28;20104;-62
2023/07/08 09:28:35;;;;;;;5.15;2.63;;;;;;;;;;5011420;28;20049;-63
2023/07/08 09:31:01;;;;;;;6.03;2.65;;;;;;;;;;5012266;28;20042;-62
2023/07/08 09:33:26;;;;;;;6.20;2.90;;;;;;;;;;5011240;28;20440;-62
2023/07/08 09:35:51;;;;;;;5.10;2.60;;;;;;;;;;4996711;28;20026;-62
2023/07/08 09:38:20;;;;;;;6.10;2.78;;;;;;;;;;4994010;28;20025;-63
2023/07/08 09:40:53;;;;;;;5.85;2.75;;;;;;;;;;5008456;28;20029;-61
2023/07/08 09:43:25;;;;;;;4.95;2.72;;;;;;;;;;5011140;28;20096;-63
2023/07/08 09:45:51;;;;;;;5.50;2.40;;;;;;;;;;5009728;28;20032;-63
2023/07/08 09:48:26;;;;;;;6.28;2.65;;;;;;;;;;5011677;28;20022;-62
2023/07/08 09:50:53;;;;;;;6.70;2.60;;;;;;;;;;4998832;28;20031;-63
2023/07/08 09:53:18;;;;;;;5.50;2.63;;;;;;;;;;5007371;28;20084;-64
2023/07/08 09:55:44;;;;;;;5.00;2.40;;;;;;;;;;5009793;28;20041;-62
2023/07/08 09:58:24;;;;;;;5.75;2.50;;;;;;;;;;5009411;28;20549;-63
2023/07/08 10:00:53;;;;;;;6.88;2.80;;;;;;;;;;5011905;28;20034;-64
2023/07/08 10:03:23;;;;;;;6.47;2.80;;;;;;;;;;5011698;28;20030;-62
2023/07/08 10:05:48;;;;;;;6.18;2.42;;;;;;;;;;5012028;28;20025;-62
2023/07/08 10:08:18;;;;;;;6.72;2.70;;;;;;;;;;5012094;28;20030;-63
2023/07/08 10:10:44;;;;;;;4.97;2.63;;;;;;;;;;5009684;28;20014;-63
2023/07/08 10:13:15;;;;;;;5.15;2.65;;;;;;;;;;5009850;28;20080;-63
2023/07/08 10:15:49;;;;;;;6.43;2.58;;;;;;;;;;5005916;28;20020;-64
2023/07/08 10:18:15;;;;;;;6.40;2.50;;;;;;;;;;5005670;28;20038;-62
2023/07/08 10:21:04;;;;;;;6.32;2.80;;;;;;;;;;5011079;28;20014;-62
2023/07/08 10:23:41;;;;;;;5.63;2.65;;;;;;;;;;4998982;28;20482;-62
2023/07/08 10:26:18;;;;;;;6.25;2.75;;;;;;;;;;5007035;28;20034;-62
2023/07/08 10:28:45;;;;;;;5.22;2.60;;;;;;;;;;5001366;28;20014;-62
2023/07/08 10:31:21;;;;;;;6.78;2.33;;;;;;;;;;5004532;28;20033;-61
2023/07/08 10:34:05;;;;;;;5.20;2.60;;;;;;;;;;5003911;28;20056;-62
2023/07/08 10:36:39;;;;;;;5.65;2.72;;;;;;;;;;5000787;28;20041;-64
2023/07/08 10:39:22;;;;;;;6.22;2.58;;;;;;;;;;5004842;28;20502;-63
2023/07/08 10:42:00;;;;;;;5.55;2.80;;;;;;;;;;5002700;28;20105;-62
2023/07/08 10:44:43;;;;;;;5.80;2.63;;;;;;;;;;5006223;28;20051;-62
2023/07/08 10:47:23;;;;;;;5.00;2.65;;;;;;;;;;5007514;28;20022;-62
2023/07/08 10:50:07;;;;;;;6.25;2.67;;;;;;;;;;5007833;28;20053;-62
2023/07/08 10:52:39;;;;;;;5.72;2.50;;;;;;;;;;5010431;28;20057;-63
2023/07/08 10:55:10;;;;;;;7.03;2.55;;;;;;;;;;4995343;28;20053;-63
2023/07/08 10:57:43;;;;;;;5.88;2.72;;;;;;;;;;5010829;28;20030;-63
2023/07/08 11:00:08;;;;;;;5.20;2.60;;;;;;;;;;5010484;28;20030;-63
2023/07/08 11:02:34;;;;;;;5.03;2.67;;;;;;;;;;5009122;28;20466;-63
2023/07/08 11:05:14;;;;;;;6.75;2.80;;;;;;;;;;5011738;28;20018;-62
2023/07/08 11:07:57;;;;;;;5.45;2.60;;;;;;;;;;5011002;28;20083;-62
2023/07/08 11:10:35;;;;;;;4.95;2.58;;;;;;;;;;5010691;28;20415;-63
2023/07/08 11:13:20;;;;;;;5.20;2.50;;;;;;;;;;5009823;28;20042;-63
2023/07/08 11:15:48;;;;;;;4.47;2.22;;;;;;;;;;5002644;28;20029;-63
2023/07/08 11:18:19;;;;;;;5.20;2.90;;;;;;;;;;5004148;28;20434;-64
2023/07/08 11:20:53;;;;;;;6.53;2.72;;;;;;;;;;5006823;28;20029;-62
2023/07/08 11:23:24;;;;;;;7.03;2.80;;;;;;;;;;5007254;28;20557;-62
2023/07/08 11:25:50;;;;;;;7.63;3.03;;;;;;;;;;5007939;28;20025;-62
2023/07/08 11:28:18;;;;;;;6.00;2.65;;;;;;;;;;5007477;28;20130;-62
2023/07/08 11:30:44;;;;;;;5.03;2.70;;;;;;;;;;5005570;28;20104;-62
2023/07/08 11:33:11;;;;;;;5.55;2.40;;;;;;;;;;5005228;28;20719;-63
2023/07/08 11:35:39;;;;;;;5.93;2.60;;;;;;;;;;5004186;28;20565;-61
2023/07/08 11:38:05;;;;;;;7.03;2.70;;;;;;;;;;5007511;28;20018;-62
2023/07/08 11:40:31;;;;;;;4.50;2.50;;;;;;;;;;5007670;28;20041;-62
2023/07/08 11:43:01;;;;;;;4.85;2.75;;;;;;;;;;5010572;28;20567;-63
2023/07/08 11:45:34;;;;;;;5.47;2.42;;;;;;;;;;5008416;28;20069;-61
2023/07/08 11:48:25;;;;;;;5.35;2.55;;;;;;;;;;5011136;28;20077;-64
2023/07/08 11:50:51;;;;;;;5.13;2.40;;;;;;;;;;5009715;28;20088;-64
2023/07/08 11:53:29;;;;;;;5.10;2.63;;;;;;;;;;5010176;28;20064;-64
2023/07/08 11:55:54;;;;;;;;;;;;;;;;;;5010059;28;20026;-61
2023/07/08 11:58:21;;;;;;;5.35;2.72;;;;;;;;;;5011070;28;19916;-64
2023/07/08 12:00:52;;;;;;;6.88;2.55;;;;;;;;;;5011312;28;20486;-63
2023/07/08 12:03:21;;;;;;;5.72;2.83;;;;;;;;;;5009934;28;20025;-64
2023/07/08 12:05:47;;;;;;;4.90;2.60;;;;;;;;;;5009935;28;20431;-63
2023/07/08 12:08:13;;;;;;;5.57;2.77;;;;;;;;;;5011181;28;20073;-64
2023/07/08 12:10:40;;;;;;;8.50;2.63;;;;;;;;;;5009471;28;20029;-63
2023/07/08 12:13:13;;;;;;;5.13;2.53;;;;;;;;;;5010072;28;20045;-62
2023/07/08 12:15:38;;;;;;;6.00;2.60;;;;;;;;;;5010584;28;20128;-63
2023/07/08 12:18:11;;;;;;;4.93;2.70;;;;;;;;;;5010516;28;20533;-63
2023/07/08 12:20:38;;;;;;;5.85;3.20;;;;;;;;;;5010399;28;20595;-62
2023/07/08 12:23:08;;;;;;;6.90;2.80;;;;;;;;;;5009754;28;20026;-63
2023/07/08 12:25:34;;;;;;;7.88;2.90;;;;;;;;;;5007671;28;20711;-63
2023/07/08 12:27:59;;;;;;;7.40;2.70;;;;;;;;;;5008502;28;20559;-64
2023/07/08 12:30:27;;;;;;;5.20;2.60;;;;;;;;;;5010226;28;20022;-64
2023/07/08 12:32:52;;;;;;;9.23;3.10;;;;;;;;;;5009219;28;20573;-64
2023/07/08 12:35:22;;;;;;;5.32;2.70;;;;;;;;;;5010919;28;20128;-62
2023/07/08 12:37:47;;;;;;;5.35;2.70;;;;;;;;;;5010717;28;20018;-63
2023/07/08 12:40:13;;;;;;;6.27;2.70;;;;;;;;;;5007260;28;20549;-63
2023/07/08 12:42:39;;;;;;;6.18;2.72;;;;;;;;;;5004640;28;20022;-62
2023/07/08 12:45:11;;;;;;;4.78;2.67;;;;;;;;;;5010240;28;20026;-64
2023/07/08 12:47:37;;;;;;;5.07;2.60;;;;;;;;;;5010342;28;20018;-63
2023/07/08 12:50:02;;;;;;;5.97;2.80;;;;;;;;;;5010966;28;20026;-64
2023/07/08 12:52:27;;;;;;;4.33;2.50;;;;;;;;;;5009895;28;20045;-62
2023/07/08 12:54:52;;;;;;;6.15;2.65;;;;;;;;;;5011247;28;20033;-63
2023/07/08 12:57:18;;;;;;;5.63;2.63;;;;;;;;;;5010505;28;20033;-61
2023/07/08 12:59:44;;;;;;;5.40;2.50;;;;;;;;;;5019785;28;20043;-65
2023/07/08 13:02:15;;;;;;;6.57;2.65;;;;;;;;;;5011071;28;20156;-63
2023/07/08 13:04:41;;;;;;;5.75;2.63;;;;;;;;;;5005904;28;20018;-62
2023/07/08 13:07:08;;;;;;;6.07;2.78;;;;;;;;;;5008638;28;20037;-62
2023/07/08 13:09:42;;;;;;;5.53;2.83;;;;;;;;;;5008409;28;20036;-63
2023/07/08 13:12:22;;;;;;;5.38;2.65;;;;;;;;;;5009312;28;20493;-63
2023/07/08 13:14:47;;;;;;;5.63;2.80;;;;;;;;;;5007806;28;20491;-63
2023/07/08 13:17:16;;;;;;;5.33;2.80;;;;;;;;;;5004064;28;20049;-64
2023/07/08 13:19:42;;;;;;;6.05;2.85;;;;;;;;;;5009228;28;20452;-63
2023/07/08 13:22:12;;;;;;;5.78;2.80;;;;;;;;;;5010535;28;20018;-64
2023/07/08 13:24:39;;;;;;;5.97;2.63;;;;;;;;;;5009205;28;20033;-62
2023/07/08 13:27:06;;;;;;;5.57;2.80;;;;;;;;;;5003778;28;20034;-62
2023/07/08 13:29:34;;;;;;;5.15;2.53;;;;;;;;;;5004726;28;20030;-62
2023/07/08 13:32:05;;;;;;;5.43;2.80;;;;;;;;;;5009130;28;20132;-64
2023/07/08 13:34:31;;;;;;;5.43;2.88;;;;;;;;;;5005950;28;20398;-61
2023/07/08 13:36:56;;;;;;;6.35;2.95;;;;;;;;;;4998735;28;20022;-63
2023/07/08 13:39:28;;;;;;;5.77;2.90;;;;;;;;;;5003682;28;20021;-63
2023/07/08 13:41:54;;;;;;;6.25;2.78;;;;;;;;;;5007517;28;20031;-61
2023/07/08 13:44:19;;;;;;;5.47;2.70;;;;;;;;;;5002793;28;20022;-64
2023/07/08 13:46:53;;;;;;;5.33;2.73;;;;;;;;;;4998058;28;20478;-64
2023/07/08 13:49:28;;;;;;;5.70;2.83;;;;;;;;;;5015920;28;20033;-62
2023/07/08 13:52:12;;;;;;;5.07;2.60;;;;;;;;;;5008612;28;20177;-62
2023/07/08 13:54:40;;;;;;;6.00;3.05;;;;;;;;;;4999262;28;20105;-63
2023/07/08 13:57:09;;;;;;;6.55;2.63;;;;;;;;;;5000503;28;20494;-63
2023/07/08 13:59:34;;;;;;;6.25;2.60;;;;;;;;;;5005205;28;20414;-64
2023/07/08 14:01:59;;;;;;;5.67;2.53;;;;;;;;;;5008716;28;20033;-62
2023/07/08 14:04:29;;;;;;;4.90;2.58;;;;;;;;;;5002078;28;20285;-63
2023/07/08 14:06:54;;;;;;;6.00;3.00;;;;;;;;;;5008548;28;20018;-62
2023/07/08 14:09:21;;;;;;;6.37;2.80;;;;;;;;;;5008449;28;20083;-63
2023/07/08 14:11:47;;;;;;;5.60;2.60;;;;;;;;;;5008520;28;20113;-62
2023/07/08 14:14:12;;;;;;;5.10;2.60;;;;;;;;;;5007917;28;20108;-62
2023/07/08 14:16:38;;;;;;;5.20;2.83;;;;;;;;;;5008662;28;20025;-63
2023/07/08 14:19:05;;;;;;;5.05;2.65;;;;;;;;;;5008689;28;20018;-63
2023/07/08 14:21:32;;;;;;;6.63;2.90;;;;;;;;;;5008480;28;20068;-63
2023/07/08 14:23:57;;;;;;;7.70;2.90;;;;;;;;;;5000413;28;21638;-63
2023/07/08 14:26:22;;;;;;;6.40;2.73;;;;;;;;;;4998232;28;20651;-64
2023/07/08 14:28:47;;;;;;;6.40;2.72;;;;;;;;;;5008169;28;20026;-61
2023/07/08 14:31:14;;;;;;;5.00;2.60;;;;;;;;;;5008668;28;20068;-62
2023/07/08 14:33:39;;;;;;;6.15;2.85;;;;;;;;;;5006885;28;20030;-64
2023/07/08 14:36:09;;;;;;;6.15;2.88;;;;;;;;;;5004728;28;20478;-62
2023/07/08 14:38:34;;;;;;;6.35;2.85;;;;;;;;;;5010777;28;20053;-62
2023/07/08 14:40:59;;;;;;;6.77;2.57;;;;;;;;;;5010769;28;20120;-64
2023/07/08 14:43:27;;;;;;;4.90;2.80;;;;;;;;;;5010513;28;20025;-64
2023/07/08 14:45:53;;;;;;;6.03;2.92;;;;;;;;;;5011413;28;20075;-65
2023/07/08 14:48:19;;;;;;;5.05;2.60;;;;;;;;;;5010167;28;20107;-63
2023/07/08 14:50:44;;;;;;;4.82;2.83;;;;;;;;;;5006169;28;20085;-62
2023/07/08 14:53:09;;;;;;;4.80;2.40;;;;;;;;;;5006994;28;20033;-63